createdAt,value
2019-04-01T00:02:06.363Z,14.73
2019-04-01T00:04:34.947Z,13.40
2019-04-01T00:07:03.607Z,13.50
2019-04-01T00:09:32.999Z,13.70
2019-04-01T00:12:01.612Z,11.37
2019-04-01T00:14:30.523Z,9.80
2019-04-01T00:16:59.590Z,11.33
2019-04-01T00:19:28.791Z,11.03
2019-04-01T00:21:57.493Z,10.27
2019-04-01T00:24:26.148Z,9.00
2019-04-01T00:26:54.811Z,14.27
2019-04-01T00:29:23.426Z,14.33
2019-04-01T00:31:52.091Z,12.37
2019-04-01T00:34:20.831Z,10.77
2019-04-01T00:36:49.748Z,11.47
2019-04-01T00:39:18.833Z,12.67
2019-04-01T00:41:54.551Z,9.80
2019-04-01T00:44:23.195Z,13.83
2019-04-01T00:46:52.191Z,10.50
2019-04-01T00:49:20.855Z,10.37
2019-04-01T00:51:49.564Z,12.40
2019-04-01T00:54:18.163Z,9.57
2019-04-01T00:56:46.799Z,13.03
2019-04-01T00:59:15.873Z,7.83
2019-04-01T01:01:44.550Z,11.40
2019-04-01T01:04:13.275Z,10.90
2019-04-01T01:06:41.927Z,9.50
2019-04-01T01:09:10.587Z,11.30
2019-04-01T01:11:39.351Z,8.20
2019-04-01T01:14:08.115Z,12.57
2019-04-01T01:16:36.739Z,7.37
2019-04-01T01:19:05.473Z,9.73
2019-04-01T01:21:35.539Z,8.20
2019-04-01T01:24:05.039Z,11.53
2019-04-01T01:26:33.783Z,8.18
2019-04-01T01:29:02.429Z,9.43
2019-04-01T01:31:31.135Z,10.43
2019-04-01T01:33:59.797Z,9.27
2019-04-01T01:36:28.860Z,9.00
2019-04-01T01:38:57.475Z,10.33
2019-04-01T01:41:26.204Z,10.63
2019-04-01T01:43:55.619Z,11.97
2019-04-01T01:46:24.179Z,12.83
2019-04-01T01:48:52.876Z,10.50
2019-04-01T01:51:21.524Z,15.33
2019-04-01T01:53:50.139Z,14.00
2019-04-01T01:56:18.896Z,17.40
2019-04-01T01:58:47.506Z,17.23
2019-04-01T02:01:16.174Z,22.82
2019-04-01T02:03:45.108Z,21.60
2019-04-01T02:06:13.871Z,25.60
2019-04-01T02:08:42.495Z,31.00
2019-04-01T02:11:11.162Z,34.23
2019-04-01T02:13:39.814Z,39.40
2019-04-01T02:16:08.558Z,48.40
2019-04-01T02:18:37.106Z,34.85
2019-04-01T02:21:05.670Z,36.30
2019-04-01T02:23:35.005Z,36.63
2019-04-01T02:26:04.970Z,36.58
2019-04-01T02:28:33.876Z,34.47
2019-04-01T02:31:02.817Z,35.93
2019-04-01T02:33:31.502Z,31.13
2019-04-01T02:36:00.072Z,28.53
2019-04-01T02:38:29.007Z,29.03
2019-04-01T02:40:57.568Z,21.77
2019-04-01T02:43:26.591Z,24.37
2019-04-01T02:45:55.163Z,22.02
2019-04-01T02:48:24.007Z,20.23
2019-04-01T02:50:52.559Z,26.30
2019-04-01T02:53:21.087Z,22.37
2019-04-01T02:56:04.251Z,18.60
2019-04-01T02:58:32.799Z,16.77
2019-04-01T03:01:01.579Z,22.77
2019-04-01T03:03:30.169Z,18.07
2019-04-01T03:05:58.739Z,20.27
2019-04-01T03:08:27.311Z,21.07
2019-04-01T03:10:55.904Z,16.87
2019-04-01T03:13:24.459Z,15.87
2019-04-01T03:15:53.334Z,19.73
2019-04-01T03:18:21.973Z,17.87
2019-04-01T03:20:50.810Z,19.67
2019-04-01T03:23:19.383Z,19.98
2019-04-01T03:25:47.943Z,20.27
2019-04-01T03:28:17.078Z,20.77
2019-04-01T03:30:45.675Z,14.73
2019-04-01T03:33:14.311Z,19.90
2019-04-01T03:35:43.246Z,17.60
2019-04-01T03:38:12.382Z,18.90
2019-04-01T03:40:40.929Z,21.33
2019-04-01T03:43:09.470Z,17.23
2019-04-01T03:45:38.066Z,20.07
2019-04-01T03:48:06.687Z,16.63
2019-04-01T03:50:35.419Z,19.33
2019-04-01T03:53:04.797Z,21.83
2019-04-01T03:55:33.352Z,16.40
2019-04-01T03:58:02.203Z,17.17
2019-04-01T04:00:31.837Z,17.67
2019-04-01T04:03:00.430Z,14.07
2019-04-01T04:05:28.974Z,15.70
2019-04-01T04:07:57.516Z,13.33
2019-04-01T04:10:26.189Z,14.53
2019-04-01T04:12:58.157Z,13.07
2019-04-01T04:15:27.418Z,11.47
2019-04-01T04:17:58.041Z,8.77
2019-04-01T04:34:28.830Z,8.27
2019-04-01T04:36:57.390Z,9.13
2019-04-01T04:39:25.979Z,12.70
2019-04-01T04:41:54.675Z,13.43
2019-04-01T04:47:10.669Z,7.30
2019-04-01T04:49:39.217Z,15.80
2019-04-01T04:52:07.788Z,11.87
2019-04-01T04:54:36.389Z,8.77
2019-04-01T04:57:04.996Z,9.37
2019-04-01T04:59:33.525Z,6.73
2019-04-01T05:02:03.145Z,10.30
2019-04-01T05:04:32.021Z,9.07
2019-04-01T05:19:27.786Z,16.57
2019-04-01T05:21:59.993Z,22.67
2019-04-01T05:25:02.873Z,20.40
2019-04-01T06:02:34.592Z,14.93
2019-04-01T13:14:57.201Z,1.00
2019-04-01T13:17:37.402Z,1.10
2019-04-01T13:25:55.292Z,1.42
2019-04-01T13:28:26.009Z,2.10
2019-04-01T13:30:56.009Z,2.20
2019-04-01T13:33:25.745Z,1.90
2019-04-01T13:36:01.722Z,1.52
2019-04-01T13:41:15.779Z,2.10
2019-04-01T13:43:44.236Z,1.40
2019-04-01T13:46:13.208Z,2.40
2019-04-01T13:48:56.515Z,2.42
2019-04-01T13:51:11.040Z,1.75
2019-04-01T13:53:39.946Z,5.12
2019-04-01T13:56:12.273Z,1.60
2019-04-01T13:58:39.397Z,4.58
2019-04-01T14:01:07.859Z,1.82
2019-04-01T14:03:36.933Z,1.60
2019-04-01T14:06:05.496Z,1.62
2019-04-01T14:08:34.004Z,5.28
2019-04-01T14:11:05.799Z,1.47
2019-04-01T14:13:32.145Z,2.75
2019-04-01T14:16:00.620Z,2.33
2019-04-01T14:18:29.422Z,0.97
2019-04-01T14:20:57.992Z,1.98
2019-04-01T14:23:26.608Z,1.70
2019-04-01T14:25:55.368Z,2.22
2019-04-01T14:28:23.940Z,0.98
2019-04-01T14:30:52.488Z,1.27
2019-04-01T14:33:21.144Z,2.00
2019-04-01T14:35:49.912Z,1.50
2019-04-01T14:38:18.496Z,1.00
2019-04-01T14:40:46.945Z,1.83
2019-04-01T14:43:15.588Z,0.88
2019-04-01T14:45:44.164Z,1.70
2019-04-01T14:48:12.828Z,2.60
2019-04-01T14:50:42.168Z,1.53
2019-04-01T14:53:10.664Z,3.77
2019-04-01T14:55:39.236Z,2.45
2019-04-01T14:58:07.816Z,1.50
2019-04-01T15:00:36.895Z,1.75
2019-04-01T15:03:05.672Z,1.10
2019-04-01T15:05:34.239Z,0.98
2019-04-01T15:08:04.624Z,1.60
2019-04-01T15:10:33.176Z,1.55
2019-04-01T15:13:05.633Z,1.40
2019-04-01T15:15:31.911Z,1.45
2019-04-01T15:18:00.828Z,2.27
2019-04-01T15:20:29.447Z,4.65
2019-04-01T15:22:57.960Z,1.60
2019-04-01T15:25:26.544Z,1.62
2019-04-01T15:27:58.097Z,2.27
2019-04-01T15:30:23.683Z,3.62
2019-04-01T15:32:52.428Z,1.82
2019-04-01T15:35:21.759Z,1.82
2019-04-01T15:37:51.265Z,1.20
2019-04-01T15:40:19.091Z,4.10
2019-04-01T15:42:47.797Z,1.90
2019-04-01T15:45:16.412Z,3.20
2019-04-01T15:47:45.032Z,1.92
2019-04-01T15:50:27.314Z,2.00
2019-04-01T15:52:42.511Z,3.00
2019-04-01T15:55:11.099Z,2.92
2019-04-01T15:57:39.596Z,3.10
2019-04-01T16:00:08.480Z,3.67
2019-04-01T16:02:37.765Z,7.10
2019-04-01T16:05:06.605Z,4.95
2019-04-01T16:07:35.120Z,3.52
2019-04-01T16:10:04.607Z,7.35
2019-04-01T16:12:33.081Z,4.97
2019-04-01T16:15:01.578Z,3.87
2019-04-01T16:17:30.123Z,5.90
2019-04-01T16:19:58.603Z,4.00
2019-04-01T16:22:27.159Z,1.75
2019-04-01T16:24:55.851Z,1.22
2019-04-01T16:27:24.336Z,1.70
2019-04-01T16:29:53.092Z,2.52
2019-04-01T16:32:21.645Z,6.90
2019-04-01T16:34:50.168Z,2.65
2019-04-01T16:37:18.662Z,1.85
2019-04-01T16:39:48.703Z,4.12
2019-04-01T16:42:15.771Z,2.17
2019-04-01T16:44:44.571Z,2.05
2019-04-01T16:47:14.541Z,1.72
2019-04-01T16:49:41.736Z,1.98
2019-04-01T16:52:10.999Z,1.98
2019-04-01T16:54:39.781Z,2.77
2019-04-01T16:57:08.345Z,5.70
2019-04-01T16:59:36.867Z,3.67
2019-04-01T17:02:17.338Z,5.85
2019-04-01T17:04:34.301Z,6.22
2019-04-01T17:07:02.792Z,7.03
2019-04-01T17:09:31.743Z,3.83
2019-04-01T17:12:00.339Z,2.62
2019-04-01T17:14:28.850Z,7.53
2019-04-01T17:16:57.476Z,5.12
2019-04-01T17:19:27.829Z,6.50
2019-04-01T17:21:55.003Z,4.95
2019-04-01T17:24:23.847Z,2.42
2019-04-01T17:26:58.724Z,3.12
2019-04-01T17:29:27.248Z,3.25
2019-04-01T17:31:55.911Z,6.00
2019-04-01T17:34:24.423Z,4.37
2019-04-01T17:36:53.111Z,3.00
2019-04-01T17:39:21.734Z,4.58
2019-04-01T17:41:50.213Z,5.67
2019-04-01T17:44:18.763Z,8.25
2019-04-01T17:46:47.327Z,8.38
2019-04-01T17:49:16.499Z,5.45
2019-04-01T17:51:45.144Z,3.60
2019-04-01T17:54:13.595Z,4.17
2019-04-01T17:56:42.147Z,4.30
2019-04-01T17:59:12.908Z,6.47
2019-04-01T18:01:39.420Z,6.12
2019-04-01T18:04:08.187Z,5.87
2019-04-01T18:06:36.779Z,4.00
2019-04-01T18:09:06.879Z,5.65
2019-04-01T18:11:35.479Z,2.92
2019-04-01T18:14:04.977Z,4.85
2019-04-01T18:16:33.607Z,3.37
2019-04-01T18:19:02.391Z,4.83
2019-04-01T18:21:32.101Z,2.80
2019-04-01T18:24:00.060Z,5.60
2019-04-01T18:26:28.659Z,3.25
2019-04-01T18:28:57.205Z,3.40
2019-04-01T18:31:25.735Z,5.47
2019-04-01T18:33:56.570Z,5.03
2019-04-01T18:36:23.127Z,4.62
2019-04-01T18:38:51.298Z,3.87
2019-04-01T18:41:19.769Z,3.80
2019-04-01T18:43:48.716Z,2.85
2019-04-01T18:46:20.796Z,3.65
2019-04-01T18:48:46.043Z,4.47
2019-04-01T18:51:14.666Z,6.65
2019-04-01T18:53:43.158Z,4.95
2019-04-01T18:56:11.659Z,3.70
2019-04-01T18:58:40.185Z,5.62
2019-04-01T19:01:08.659Z,5.50
2019-04-01T19:03:37.185Z,5.75
2019-04-01T19:06:07.255Z,4.58
2019-04-01T19:08:34.395Z,5.00
2019-04-01T19:16:51.923Z,8.15
2019-04-01T19:19:22.101Z,12.00
2019-04-01T19:21:51.298Z,10.00
2019-04-01T19:24:21.236Z,10.25
2019-04-01T19:27:01.775Z,10.43
2019-04-01T19:29:33.351Z,12.90
2019-04-01T19:32:01.984Z,10.72
2019-04-01T20:08:58.798Z,14.00
2019-04-01T20:25:17.469Z,9.08
2019-04-01T20:27:45.906Z,9.95
2019-04-01T20:30:18.405Z,7.57
2019-04-01T20:35:41.862Z,8.35
2019-04-01T20:38:10.403Z,8.40
2019-04-01T20:44:48.503Z,7.45
2019-04-01T20:47:17.979Z,8.78
2019-04-01T21:13:52.969Z,7.47
2019-04-01T21:16:22.026Z,7.60
2019-04-01T21:25:36.148Z,10.03
2019-04-01T21:41:26.791Z,7.97
2019-04-01T21:43:55.940Z,7.58
2019-04-01T21:46:24.896Z,6.83
2019-04-01T21:48:53.931Z,6.33
2019-04-01T21:51:22.881Z,8.67
2019-04-01T21:53:52.845Z,7.55
2019-04-01T21:56:23.107Z,8.03
2019-04-01T21:58:51.333Z,7.47
2019-04-01T22:01:20.421Z,5.90
2019-04-01T22:03:49.212Z,8.23
2019-04-01T22:06:17.989Z,6.77
2019-04-01T22:08:46.825Z,5.47
2019-04-01T22:11:15.725Z,6.15
2019-04-01T22:13:44.669Z,7.12
2019-04-01T22:16:13.554Z,6.10
2019-04-01T22:18:43.007Z,5.55
2019-04-01T22:21:11.609Z,8.33
2019-04-01T22:23:40.533Z,9.20
2019-04-01T22:26:09.422Z,5.60
2019-04-01T22:28:38.340Z,7.00
2019-04-01T22:31:07.180Z,7.00
2019-04-01T22:33:36.276Z,8.68
2019-04-01T22:36:07.080Z,8.98
2019-04-01T22:38:35.956Z,10.07
2019-04-01T22:41:05.420Z,8.30
2019-04-01T22:43:34.396Z,7.42
2019-04-01T22:46:03.320Z,8.50
2019-04-01T22:48:32.268Z,10.43
2019-04-01T22:51:01.785Z,7.47
2019-04-01T22:53:31.012Z,9.30
2019-04-01T22:55:59.834Z,8.15
2019-04-01T22:58:28.904Z,12.30
2019-04-01T23:00:57.844Z,10.53
2019-04-01T23:03:26.788Z,10.43
2019-04-01T23:05:55.844Z,12.80
2019-04-01T23:08:24.708Z,10.80
2019-04-01T23:10:53.560Z,8.08
2019-04-01T23:13:22.404Z,9.75
2019-04-01T23:15:51.583Z,9.20
2019-04-01T23:18:20.427Z,10.43
2019-04-01T23:20:49.236Z,12.60
2019-04-01T23:23:18.103Z,10.70
2019-04-01T23:25:46.968Z,10.37
2019-04-01T23:28:15.792Z,9.60
2019-04-01T23:30:45.084Z,11.43
2019-04-01T23:33:15.235Z,10.55
2019-04-01T23:35:43.299Z,10.33
2019-04-01T23:38:12.055Z,10.13
2019-04-01T23:40:41.579Z,12.60
2019-04-01T23:43:10.468Z,11.17
2019-04-01T23:45:40.028Z,10.23
2019-04-01T23:48:08.868Z,9.98
2019-04-01T23:50:38.286Z,10.82
2019-04-01T23:53:06.600Z,9.57
2019-04-01T23:55:35.452Z,11.30
2019-04-01T23:58:05.196Z,10.57
